< < Back
Terminal Aerodrome Forecast


Current Version              Previous Versions:   1  2  3  4  5  6  7  8  9  

Terminal Aerodrome Forecast

002
FTUS42 KFFC 190500 RRA
TAFATL
TAF
KATL 190543Z 1906/2012 VRB03KT P6SM BKN200
     FM191100 07005KT 6SM BR BKN008
     FM191400 08007KT P6SM BKN015
     FM191600 09009KT P6SM SCT035
     FM191800 10009KT P6SM SCT050
     FM201000 08008KT P6SM BKN015=



Latest METAR

018
SAUS70 KWBC 190800 RRA
MTRATL
METAR KATL 190752Z 00000KT 10SM BKN200 OVC250 23/19 A3001 RMK AO2 SLP153
T02280189


USA.gov is the U.S. government's official web portal to all federal, state and local government web resources and services.